createdAt,value
2022-08-19T00:01:54.076Z,88.51
2022-08-19T00:04:26.869Z,88.49
2022-08-19T00:06:54.571Z,88.63
2022-08-19T00:09:24.732Z,88.58
2022-08-19T00:11:53.919Z,88.31
2022-08-19T00:14:21.715Z,88.29
2022-08-19T00:16:52.196Z,88.13
2022-08-19T00:19:19.116Z,88.43
2022-08-19T00:21:46.040Z,88.84
2022-08-19T00:24:15.519Z,88.23
2022-08-19T00:26:45.007Z,88.45
2022-08-19T00:29:15.123Z,88.44
2022-08-19T00:31:43.674Z,88.54
2022-08-19T00:34:13.724Z,88.87
2022-08-19T00:36:42.226Z,88.47
2022-08-19T00:39:10.541Z,88.85
2022-08-19T00:41:37.683Z,88.86
2022-08-19T00:44:15.548Z,88.70
2022-08-19T00:46:55.621Z,89.09
2022-08-19T00:49:33.803Z,88.83
2022-08-19T00:52:15.294Z,89.41
2022-08-19T00:54:44.496Z,89.18
2022-08-19T00:57:16.508Z,88.87
2022-08-19T01:00:00.566Z,88.84
2022-08-19T01:02:32.083Z,89.28
2022-08-19T01:05:01.471Z,89.33
2022-08-19T01:07:28.644Z,89.13
2022-08-19T01:10:04.275Z,88.98
2022-08-19T01:12:31.942Z,89.15
2022-08-19T01:15:00.345Z,88.81
2022-08-19T01:17:28.516Z,88.99
2022-08-19T01:19:55.557Z,89.25
2022-08-19T01:22:31.471Z,89.84
2022-08-19T01:25:00.366Z,89.65
2022-08-19T01:27:42.945Z,89.29
2022-08-19T01:30:22.554Z,89.36
2022-08-19T01:32:51.157Z,89.29
2022-08-19T01:35:19.119Z,89.09
2022-08-19T01:37:52.779Z,89.07
2022-08-19T01:40:24.706Z,88.87
2022-08-19T01:42:52.813Z,88.85
2022-08-19T01:45:22.936Z,89.14
2022-08-19T01:48:01.271Z,89.02
2022-08-19T01:50:32.347Z,89.49
2022-08-19T01:53:06.330Z,89.36
2022-08-19T01:55:40.828Z,89.29
2022-08-19T01:58:16.210Z,89.88
2022-08-19T02:00:44.461Z,89.47
2022-08-19T02:03:12.214Z,89.13
2022-08-19T02:05:40.630Z,89.32
2022-08-19T02:08:08.457Z,89.28
2022-08-19T02:10:41.435Z,89.32
2022-08-19T02:13:08.536Z,89.53
2022-08-19T02:15:35.457Z,89.36
2022-08-19T02:18:02.368Z,89.38
2022-08-19T02:20:29.279Z,90.03
2022-08-19T02:22:56.209Z,89.54
2022-08-19T02:25:23.251Z,89.81
2022-08-19T02:27:50.246Z,89.30
2022-08-19T02:30:19.870Z,89.75
2022-08-19T02:32:46.928Z,89.47
2022-08-19T02:35:15.591Z,89.76
2022-08-19T02:38:02.799Z,89.51
2022-08-19T02:40:35.197Z,89.77
2022-08-19T02:43:04.196Z,89.48
2022-08-19T02:45:41.577Z,89.59
2022-08-19T02:48:14.946Z,89.60
2022-08-19T02:50:54.621Z,89.73
2022-08-19T02:53:24.074Z,89.79
2022-08-19T02:55:52.150Z,89.88
2022-08-19T02:58:21.280Z,90.27
2022-08-19T03:00:57.268Z,89.78
2022-08-19T03:03:24.509Z,89.96
2022-08-19T03:05:56.524Z,89.52
2022-08-19T03:08:26.346Z,89.67
2022-08-19T03:10:53.899Z,89.63
2022-08-19T03:13:21.300Z,89.94
2022-08-19T03:15:49.546Z,89.72
2022-08-19T03:18:17.869Z,89.59
2022-08-19T03:20:49.124Z,89.60
2022-08-19T03:23:17.774Z,89.55
2022-08-19T03:26:03.146Z,89.56
2022-08-19T03:28:36.348Z,89.54
2022-08-19T03:31:43.976Z,89.58
2022-08-19T03:33:55.612Z,89.95
2022-08-19T03:36:26.283Z,89.95
2022-08-19T03:39:00.065Z,90.11
2022-08-19T03:41:45.746Z,90.19
2022-08-19T03:44:23.806Z,89.95
2022-08-19T03:46:56.112Z,90.01
2022-08-19T03:49:28.247Z,90.43
2022-08-19T03:52:01.180Z,90.05
2022-08-19T03:54:29.605Z,90.12
2022-08-19T03:56:57.750Z,90.02
2022-08-19T03:59:30.007Z,90.04
2022-08-19T04:02:00.324Z,89.85
2022-08-19T04:04:28.963Z,90.03
2022-08-19T04:06:57.253Z,90.08
2022-08-19T04:09:24.331Z,89.93
2022-08-19T04:11:55.036Z,90.29
2022-08-19T04:14:29.285Z,90.12
2022-08-19T04:16:56.712Z,90.26
2022-08-19T04:19:24.372Z,90.40
2022-08-19T04:21:54.708Z,91.41
2022-08-19T04:24:22.620Z,91.28
2022-08-19T04:26:50.275Z,91.05
2022-08-19T04:29:25.701Z,91.20
2022-08-19T04:31:55.317Z,91.33
2022-08-19T04:34:25.456Z,91.90
2022-08-19T04:36:55.630Z,91.46
2022-08-19T04:39:46.750Z,91.73
2022-08-19T04:42:32.612Z,92.38
2022-08-19T04:45:00.132Z,93.04
2022-08-19T04:47:46.877Z,92.27
2022-08-19T04:50:15.179Z,92.39
2022-08-19T04:52:43.755Z,92.97
2022-08-19T04:55:13.507Z,92.38
2022-08-19T04:57:41.049Z,92.58
2022-08-19T05:00:10.424Z,92.49
2022-08-19T05:02:38.160Z,92.27
2022-08-19T05:05:07.323Z,91.94
2022-08-19T05:07:34.481Z,92.39
2022-08-19T05:10:01.752Z,92.29
2022-08-19T05:12:29.643Z,92.26
2022-08-19T05:14:58.475Z,92.36
2022-08-19T05:17:28.987Z,92.33
2022-08-19T05:20:17.197Z,92.56
2022-08-19T05:22:47.674Z,92.53
2022-08-19T05:25:20.409Z,92.46
2022-08-19T05:27:48.959Z,92.39
2022-08-19T05:30:17.168Z,92.51
2022-08-19T05:32:44.876Z,92.28
2022-08-19T05:35:12.571Z,92.43
2022-08-19T05:37:41.219Z,92.80
2022-08-19T05:40:10.596Z,92.89
2022-08-19T05:42:38.410Z,92.95
2022-08-19T05:45:07.188Z,92.54
2022-08-19T05:47:34.269Z,92.48
2022-08-19T05:50:04.814Z,91.30
2022-08-19T05:52:32.509Z,92.52
2022-08-19T05:55:00.441Z,92.25
2022-08-19T05:57:29.689Z,91.93
2022-08-19T05:59:58.804Z,92.29
2022-08-19T06:02:28.060Z,91.81
2022-08-19T06:04:55.055Z,92.44
2022-08-19T06:07:22.493Z,92.14
2022-08-19T06:09:58.843Z,92.06
2022-08-19T06:12:31.444Z,91.46
2022-08-19T06:15:00.728Z,92.31
2022-08-19T06:17:31.068Z,92.47
2022-08-19T06:19:59.381Z,92.64
2022-08-19T06:22:27.137Z,91.14
2022-08-19T06:24:55.075Z,92.74
2022-08-19T06:27:23.199Z,92.69
2022-08-19T06:29:50.601Z,93.50
2022-08-19T06:32:19.677Z,93.86
2022-08-19T06:34:47.562Z,93.69
2022-08-19T06:37:15.260Z,93.87
2022-08-19T06:39:45.068Z,93.74
2022-08-19T06:42:16.983Z,93.13
2022-08-19T06:44:49.273Z,92.23
2022-08-19T06:47:23.632Z,91.85
2022-08-19T06:50:05.367Z,90.98
2022-08-19T06:52:38.184Z,91.45
2022-08-19T06:55:06.930Z,91.13
2022-08-19T06:57:35.445Z,91.22
2022-08-19T07:00:03.491Z,90.57
2022-08-19T07:02:30.473Z,90.95
2022-08-19T07:05:06.683Z,91.71
2022-08-19T07:07:34.935Z,91.32
2022-08-19T07:10:03.940Z,91.67
2022-08-19T07:12:35.526Z,90.67
2022-08-19T07:15:06.211Z,90.86
2022-08-19T07:17:34.613Z,91.47
2022-08-19T07:20:05.393Z,91.44
2022-08-19T07:22:38.472Z,91.69
2022-08-19T07:25:08.351Z,91.67
2022-08-19T07:27:35.352Z,92.15
2022-08-19T07:30:02.742Z,91.52
2022-08-19T07:32:31.669Z,91.79
2022-08-19T07:35:01.332Z,90.89
2022-08-19T07:37:33.129Z,91.12
2022-08-19T07:40:05.780Z,91.80
2022-08-19T07:42:32.901Z,91.46
2022-08-19T07:45:00.204Z,91.11
2022-08-19T07:47:50.390Z,91.14
2022-08-19T07:50:16.891Z,91.25
2022-08-19T07:52:45.172Z,90.94
2022-08-19T07:55:41.241Z,90.03
2022-08-19T07:58:03.364Z,90.08
2022-08-19T08:00:32.023Z,89.45
2022-08-19T08:02:59.048Z,89.61
2022-08-19T08:05:45.253Z,89.26
2022-08-19T08:08:33.892Z,89.56
2022-08-19T08:11:01.445Z,89.32
2022-08-19T08:13:29.289Z,88.32
2022-08-19T08:15:57.743Z,88.14
2022-08-19T08:18:28.070Z,87.20
2022-08-19T08:20:59.151Z,86.50
2022-08-19T08:23:27.476Z,87.18
2022-08-19T08:25:58.757Z,87.65
2022-08-19T08:28:29.571Z,86.93
2022-08-19T08:30:57.994Z,86.93
2022-08-19T08:33:33.205Z,87.54
2022-08-19T08:36:07.025Z,87.50
2022-08-19T08:38:39.654Z,87.14
2022-08-19T08:41:24.120Z,86.55
2022-08-19T08:43:53.856Z,86.04
2022-08-19T08:46:43.056Z,85.53
2022-08-19T08:49:19.591Z,85.70
2022-08-19T08:52:01.955Z,85.68
2022-08-19T08:54:40.536Z,84.10
2022-08-19T08:57:30.512Z,83.15
2022-08-19T09:00:15.705Z,81.91
2022-08-19T09:02:44.018Z,81.54
2022-08-19T09:05:16.809Z,80.08
2022-08-19T09:08:01.717Z,79.04
2022-08-19T09:10:44.618Z,80.39
2022-08-19T09:13:45.618Z,79.20
2022-08-19T09:16:21.907Z,75.25
2022-08-19T09:18:59.840Z,75.03
2022-08-19T09:21:30.579Z,73.30
2022-08-19T09:24:01.064Z,73.22
2022-08-19T09:26:47.658Z,71.72
2022-08-19T09:29:19.598Z,70.44
2022-08-19T09:31:50.344Z,69.53
2022-08-19T09:34:20.807Z,69.14
2022-08-19T09:36:53.881Z,68.82
2022-08-19T09:39:21.683Z,67.98
2022-08-19T09:41:50.579Z,65.96
2022-08-19T09:44:18.197Z,67.37
2022-08-19T09:46:48.000Z,62.78
2022-08-19T09:49:16.083Z,64.32
2022-08-19T09:51:50.785Z,64.56
2022-08-19T09:54:22.468Z,61.86
2022-08-19T09:56:52.868Z,61.61
2022-08-19T09:59:19.926Z,63.16
2022-08-19T10:01:47.057Z,62.67
2022-08-19T10:04:20.424Z,62.89
2022-08-19T10:06:53.399Z,63.14
2022-08-19T10:09:33.549Z,61.31
2022-08-19T10:12:02.526Z,61.34
2022-08-19T10:14:30.527Z,61.38
2022-08-19T10:16:59.181Z,58.38
2022-08-19T10:19:26.934Z,62.72
2022-08-19T10:21:58.699Z,61.97
2022-08-19T10:24:28.702Z,62.19
2022-08-19T10:26:58.750Z,61.64
2022-08-19T10:29:32.235Z,61.78
2022-08-19T10:32:09.619Z,62.74
2022-08-19T10:34:48.510Z,60.76
2022-08-19T10:37:28.788Z,61.69
2022-08-19T10:39:58.455Z,62.32
2022-08-19T10:42:25.477Z,62.24
2022-08-19T10:44:52.466Z,62.31
2022-08-19T10:47:25.447Z,63.71
2022-08-19T10:50:17.043Z,58.82
2022-08-19T10:52:50.343Z,62.82
2022-08-19T10:55:42.139Z,61.01
2022-08-19T10:58:16.673Z,63.03
2022-08-19T11:00:44.628Z,61.45
2022-08-19T11:03:12.075Z,60.29
2022-08-19T11:05:40.445Z,60.93
2022-08-19T11:08:22.619Z,61.79
2022-08-19T11:10:57.421Z,63.95
2022-08-19T11:13:25.465Z,61.67
2022-08-19T11:16:08.493Z,60.63
2022-08-19T11:18:41.181Z,62.63
2022-08-19T11:21:13.670Z,59.91
2022-08-19T11:23:41.679Z,61.94
2022-08-19T11:26:08.707Z,61.43
2022-08-19T11:28:36.079Z,61.74
2022-08-19T11:31:04.359Z,60.47
2022-08-19T11:33:33.533Z,61.10
2022-08-19T11:36:01.686Z,60.28
2022-08-19T11:38:28.795Z,61.75
2022-08-19T11:41:01.652Z,59.69
2022-08-19T11:43:31.583Z,61.11
2022-08-19T11:46:07.774Z,60.45
2022-08-19T11:48:35.618Z,60.24
2022-08-19T11:51:09.543Z,61.42
2022-08-19T11:53:38.647Z,60.05
2022-08-19T11:56:07.962Z,60.42
2022-08-19T11:58:35.894Z,61.83
2022-08-19T12:01:07.734Z,61.93
2022-08-19T12:03:35.044Z,63.30
2022-08-19T12:06:14.147Z,62.97
2022-08-19T12:08:43.212Z,61.84
2022-08-19T12:11:12.035Z,62.44
2022-08-19T12:13:39.861Z,64.44
2022-08-19T12:16:13.211Z,61.64
2022-08-19T12:18:46.926Z,64.93
2022-08-19T12:21:29.124Z,63.96
2022-08-19T12:23:58.529Z,64.80
2022-08-19T12:26:28.360Z,63.97
2022-08-19T12:28:55.505Z,65.44
2022-08-19T12:31:22.836Z,66.23
2022-08-19T12:33:49.861Z,65.72
2022-08-19T12:36:18.718Z,66.42
2022-08-19T12:38:46.113Z,66.93
2022-08-19T12:41:18.576Z,68.08
2022-08-19T12:43:46.863Z,69.13
2022-08-19T12:46:15.159Z,69.43
2022-08-19T12:48:46.374Z,69.79
2022-08-19T12:51:18.644Z,69.31
2022-08-19T12:53:46.099Z,71.23
2022-08-19T12:56:15.609Z,71.91
2022-08-19T12:58:50.487Z,71.97
2022-08-19T13:01:22.828Z,71.01
2022-08-19T13:03:51.109Z,70.94
2022-08-19T13:06:19.402Z,70.80
2022-08-19T13:08:47.513Z,70.02
2022-08-19T13:11:21.764Z,69.11
2022-08-19T13:13:52.925Z,70.79
2022-08-19T13:16:21.192Z,70.06
2022-08-19T13:18:48.508Z,70.90
2022-08-19T13:21:16.256Z,71.41
2022-08-19T13:23:43.528Z,72.19
2022-08-19T13:26:13.644Z,73.33
2022-08-19T13:29:01.548Z,72.46
2022-08-19T13:31:50.722Z,76.80
2022-08-19T13:34:21.975Z,77.90
2022-08-19T13:36:48.909Z,79.03
2022-08-19T13:39:15.905Z,78.98
2022-08-19T13:41:49.043Z,80.83
2022-08-19T13:44:19.079Z,82.46
2022-08-19T13:46:48.368Z,81.94
2022-08-19T13:49:16.129Z,84.76
2022-08-19T13:51:46.345Z,83.06
2022-08-19T13:54:13.920Z,84.04
2022-08-19T13:56:45.732Z,84.02
2022-08-19T13:59:13.367Z,84.92
2022-08-19T14:01:42.099Z,86.85
2022-08-19T14:04:09.702Z,86.11
2022-08-19T14:06:37.209Z,84.57
2022-08-19T14:09:05.541Z,84.61
2022-08-19T14:11:32.493Z,84.29
2022-08-19T14:13:59.421Z,85.15
2022-08-19T14:16:28.057Z,85.11
2022-08-19T14:18:55.076Z,85.59
2022-08-19T14:21:25.159Z,86.43
2022-08-19T14:23:53.010Z,86.88
2022-08-19T14:26:24.035Z,87.75
2022-08-19T14:28:53.031Z,88.20
2022-08-19T14:31:21.045Z,89.72
2022-08-19T14:33:48.757Z,90.92
2022-08-19T14:36:16.320Z,90.59
2022-08-19T14:38:44.160Z,91.80
2022-08-19T14:41:20.238Z,91.99
2022-08-19T14:43:50.884Z,91.23
2022-08-19T14:46:21.988Z,91.30
2022-08-19T14:48:51.863Z,91.10
2022-08-19T14:51:22.510Z,92.51
2022-08-19T14:53:50.931Z,91.70
2022-08-19T14:56:24.236Z,90.73
2022-08-19T14:58:54.027Z,91.56
2022-08-19T15:01:23.251Z,90.30
2022-08-19T15:03:53.557Z,92.63
2022-08-19T15:06:21.936Z,92.37
2022-08-19T15:08:51.645Z,92.71
2022-08-19T15:11:23.126Z,92.11
2022-08-19T15:13:50.880Z,92.67
2022-08-19T15:16:19.020Z,92.05
2022-08-19T15:18:50.574Z,91.57
2022-08-19T15:21:26.606Z,92.36
2022-08-19T15:23:56.746Z,91.16
2022-08-19T15:26:24.039Z,91.68
2022-08-19T15:28:51.046Z,90.23
2022-08-19T15:31:28.290Z,90.70
2022-08-19T15:33:58.468Z,89.62
2022-08-19T15:36:26.900Z,91.17
2022-08-19T15:38:55.439Z,90.41
2022-08-19T15:41:30.861Z,90.59
2022-08-19T15:44:11.310Z,90.58
2022-08-19T15:46:41.969Z,90.58
2022-08-19T15:49:09.724Z,90.26
2022-08-19T15:51:39.145Z,89.63
2022-08-19T15:54:10.771Z,90.12
2022-08-19T15:56:57.826Z,89.58
2022-08-19T15:59:47.142Z,90.11
2022-08-19T16:02:37.736Z,89.85
2022-08-19T16:05:27.858Z,89.67
2022-08-19T16:07:57.119Z,90.07
2022-08-19T16:10:26.069Z,90.83
2022-08-19T16:12:56.410Z,90.56
2022-08-19T16:15:27.749Z,90.24
2022-08-19T16:17:57.074Z,90.08
2022-08-19T16:20:27.226Z,90.33
2022-08-19T16:22:56.368Z,90.81
2022-08-19T16:25:27.444Z,90.31
2022-08-19T16:28:06.346Z,90.21
2022-08-19T16:30:38.388Z,90.50
2022-08-19T16:33:06.319Z,89.59
2022-08-19T16:35:33.423Z,88.98
2022-08-19T16:38:01.233Z,88.53
2022-08-19T16:40:28.201Z,88.41
2022-08-19T16:42:55.378Z,89.09
2022-08-19T16:45:22.399Z,89.22
2022-08-19T16:47:50.430Z,89.35
2022-08-19T16:50:25.292Z,88.88
2022-08-19T16:53:00.454Z,88.30
2022-08-19T16:55:28.668Z,87.78
2022-08-19T16:57:55.840Z,87.69
2022-08-19T17:00:23.123Z,88.14
2022-08-19T17:02:50.126Z,86.82
2022-08-19T17:05:17.210Z,87.07
2022-08-19T17:07:44.539Z,86.46
2022-08-19T17:10:11.517Z,86.83
2022-08-19T17:12:38.517Z,88.92
2022-08-19T17:15:08.258Z,88.70
2022-08-19T17:17:37.184Z,88.67
2022-08-19T17:20:07.105Z,89.05
2022-08-19T17:22:36.785Z,88.99
2022-08-19T17:25:04.777Z,90.70
2022-08-19T17:27:32.586Z,89.34
2022-08-19T17:30:02.248Z,89.48
2022-08-19T17:32:29.529Z,89.95
2022-08-19T17:34:56.528Z,89.68
2022-08-19T17:37:23.522Z,89.43
2022-08-19T17:39:50.574Z,90.13
2022-08-19T17:42:17.859Z,90.66
2022-08-19T17:44:50.990Z,89.71
2022-08-19T17:47:19.343Z,89.31
2022-08-19T17:49:46.320Z,89.70
2022-08-19T17:52:13.244Z,90.03
2022-08-19T17:54:40.567Z,91.22
2022-08-19T17:57:08.371Z,90.28
2022-08-19T17:59:37.257Z,90.47
2022-08-19T18:02:06.562Z,90.34
2022-08-19T18:04:33.789Z,90.90
2022-08-19T18:07:04.079Z,90.68
2022-08-19T18:09:41.447Z,90.28
2022-08-19T18:12:12.139Z,90.78
2022-08-19T18:14:41.086Z,91.62
2022-08-19T18:17:16.443Z,92.09
2022-08-19T18:19:45.611Z,90.42
2022-08-19T18:22:27.841Z,90.54
2022-08-19T18:24:57.256Z,90.26
2022-08-19T18:27:26.948Z,89.53
2022-08-19T18:29:59.180Z,90.45
2022-08-19T18:32:35.278Z,90.37
2022-08-19T18:35:11.083Z,89.63
2022-08-19T18:37:40.232Z,89.85
2022-08-19T18:40:28.717Z,89.64
2022-08-19T18:43:11.284Z,90.34
2022-08-19T18:45:58.335Z,91.47
2022-08-19T18:49:00.850Z,90.54
2022-08-19T18:51:31.695Z,91.89
2022-08-19T18:54:01.171Z,91.77
2022-08-19T18:56:32.112Z,91.59
2022-08-19T18:59:00.949Z,90.88
2022-08-19T19:01:36.590Z,91.79
2022-08-19T19:04:10.524Z,91.99
2022-08-19T19:06:40.876Z,91.48
2022-08-19T19:09:14.188Z,91.91
2022-08-19T19:11:44.420Z,92.00
2022-08-19T19:14:27.674Z,92.17
2022-08-19T19:17:07.917Z,92.02
2022-08-19T19:19:35.327Z,92.05
2022-08-19T19:22:04.487Z,92.14
2022-08-19T19:24:33.269Z,92.71
2022-08-19T19:27:08.289Z,91.23
2022-08-19T19:29:36.639Z,91.90
2022-08-19T19:32:09.260Z,92.11
2022-08-19T19:34:38.786Z,92.32
2022-08-19T19:37:05.931Z,92.37
2022-08-19T19:39:45.419Z,91.43
2022-08-19T19:42:21.150Z,91.13
2022-08-19T19:44:51.217Z,92.34
2022-08-19T19:47:19.812Z,92.85
2022-08-19T19:52:39.142Z,93.03
2022-08-19T19:55:09.114Z,93.38
2022-08-19T19:57:37.326Z,93.61
2022-08-19T20:00:06.159Z,93.59
2022-08-19T20:02:33.075Z,93.09
2022-08-19T20:05:01.380Z,93.01
2022-08-19T20:07:46.741Z,92.44
2022-08-19T20:10:14.132Z,92.82
2022-08-19T20:12:41.042Z,93.29
2022-08-19T20:15:09.431Z,92.89
2022-08-19T20:17:42.351Z,93.15
2022-08-19T20:20:14.920Z,92.87
2022-08-19T20:22:43.320Z,92.98
2022-08-19T20:25:11.997Z,92.63
2022-08-19T20:27:40.369Z,93.16
2022-08-19T20:30:13.916Z,93.28
2022-08-19T20:32:46.869Z,93.60
2022-08-19T20:35:17.223Z,93.23
2022-08-19T20:37:44.416Z,93.11
2022-08-19T20:40:16.184Z,93.04
2022-08-19T20:42:47.484Z,92.58
2022-08-19T20:45:32.907Z,93.51
2022-08-19T20:48:02.680Z,93.26
2022-08-19T20:50:30.692Z,93.56
2022-08-19T20:52:58.233Z,93.98
2022-08-19T20:55:27.111Z,93.30
2022-08-19T20:57:55.069Z,93.68
2022-08-19T21:00:22.308Z,94.09
2022-08-19T21:02:49.260Z,93.66
2022-08-19T21:05:16.286Z,93.89
2022-08-19T21:07:43.439Z,93.58
2022-08-19T21:10:11.114Z,93.78
2022-08-19T21:12:39.276Z,93.78
2022-08-19T21:15:07.137Z,93.91
2022-08-19T21:17:34.069Z,94.03
2022-08-19T21:20:01.096Z,94.03
2022-08-19T21:22:28.177Z,93.89
2022-08-19T21:24:55.124Z,93.99
2022-08-19T21:27:22.050Z,94.28
2022-08-19T21:29:48.999Z,93.87
2022-08-19T21:32:16.247Z,94.11
2022-08-19T21:34:46.193Z,94.23
2022-08-19T21:37:17.674Z,94.07
2022-08-19T21:39:53.311Z,93.80
2022-08-19T21:42:20.385Z,94.03
2022-08-19T21:44:47.358Z,93.98
2022-08-19T21:47:14.351Z,94.01
2022-08-19T21:49:41.387Z,93.94
2022-08-19T21:52:08.628Z,94.05
2022-08-19T21:54:38.142Z,93.52
2022-08-19T21:57:10.192Z,93.86
2022-08-19T21:59:43.920Z,94.45
2022-08-19T22:02:21.834Z,93.98
2022-08-19T22:04:53.864Z,94.28
2022-08-19T22:07:22.468Z,94.13
2022-08-19T22:09:51.504Z,93.97
2022-08-19T22:12:30.177Z,93.97
2022-08-19T22:14:58.793Z,94.14
2022-08-19T22:17:27.366Z,94.25
2022-08-19T22:19:56.092Z,94.13
2022-08-19T22:22:30.720Z,93.95
2022-08-19T22:25:09.101Z,94.00
2022-08-19T22:27:36.396Z,93.79
2022-08-19T22:30:10.066Z,94.10
2022-08-19T22:32:37.243Z,94.13
2022-08-19T22:35:08.475Z,94.18
2022-08-19T22:37:35.428Z,94.32
2022-08-19T22:40:05.391Z,94.11
2022-08-19T22:42:33.189Z,94.04
2022-08-19T22:45:00.862Z,94.04
2022-08-19T22:47:30.163Z,94.22
2022-08-19T22:50:00.131Z,93.83
2022-08-19T22:52:27.735Z,94.27
2022-08-19T22:55:00.233Z,94.21
2022-08-19T22:57:27.393Z,94.17
2022-08-19T23:00:00.948Z,94.00
2022-08-19T23:02:38.396Z,94.58
2022-08-19T23:05:10.153Z,94.14
2022-08-19T23:07:38.174Z,94.22
2022-08-19T23:10:09.452Z,94.38
2022-08-19T23:12:41.172Z,94.22
2022-08-19T23:15:24.156Z,93.97
2022-08-19T23:17:56.807Z,94.49
2022-08-19T23:20:27.017Z,94.65
2022-08-19T23:22:55.767Z,94.61
2022-08-19T23:25:28.214Z,94.34
2022-08-19T23:28:14.132Z,94.38
2022-08-19T23:30:45.512Z,94.39
2022-08-19T23:33:24.369Z,94.50
2022-08-19T23:35:58.280Z,94.53
2022-08-19T23:38:28.368Z,94.54
2022-08-19T23:41:02.236Z,94.67
2022-08-19T23:43:31.198Z,92.96
2022-08-19T23:46:04.020Z,94.39
2022-08-19T23:48:37.969Z,94.45
2022-08-19T23:51:09.010Z,94.10
2022-08-19T23:53:40.879Z,93.93
2022-08-19T23:56:10.125Z,93.86
2022-08-19T23:58:38.380Z,94.22
